createdAt,value
2018-11-04T00:00:17.364Z,101904.54
2018-11-04T00:02:47.498Z,101900.77
2018-11-04T00:05:17.335Z,101899.70
2018-11-04T00:07:48.026Z,101893.45
2018-11-04T00:10:17.519Z,101881.16
2018-11-04T00:12:47.013Z,101878.05
2018-11-04T00:15:23.079Z,101878.31
2018-11-04T00:17:52.459Z,101875.80
2018-11-04T00:20:21.867Z,101877.17
2018-11-04T00:22:51.263Z,101873.43
2018-11-04T00:25:20.720Z,101867.50
2018-11-04T00:27:50.138Z,101872.36
2018-11-04T00:30:19.647Z,101874.62
2018-11-04T00:32:49.036Z,101867.83
2018-11-04T00:35:18.444Z,101868.31
2018-11-04T00:37:47.883Z,101862.31
2018-11-04T00:40:17.279Z,101865.87
2018-11-04T00:42:46.680Z,101858.23
2018-11-04T00:45:16.113Z,101854.74
2018-11-04T00:47:45.476Z,101844.36
2018-11-04T00:50:16.091Z,101840.13
2018-11-04T00:52:45.706Z,101837.68
2018-11-04T00:55:15.208Z,101838.34
2018-11-04T00:57:44.600Z,101839.38
2018-11-04T01:00:16.731Z,101834.88
2018-11-04T01:02:47.309Z,101828.09
2018-11-04T01:05:17.139Z,101831.38
2018-11-04T01:07:46.552Z,101828.52
2018-11-04T01:10:16.012Z,101821.72
2018-11-04T01:12:46.028Z,101817.48
2018-11-04T01:15:15.950Z,101811.88
2018-11-04T01:17:45.778Z,101807.16
2018-11-04T01:20:16.465Z,101804.63
2018-11-04T01:22:46.421Z,101795.68
2018-11-04T01:25:15.827Z,101796.30
2018-11-04T01:27:45.236Z,101790.31
2018-11-04T01:30:15.523Z,101793.46
2018-11-04T01:32:45.267Z,101784.44
2018-11-04T01:35:15.032Z,101788.47
2018-11-04T01:37:44.453Z,101784.30
2018-11-04T01:40:13.800Z,101783.13
2018-11-04T01:42:43.496Z,101777.69
2018-11-04T01:45:12.895Z,101779.95
2018-11-04T01:47:42.363Z,101781.86
2018-11-04T01:50:14.075Z,101781.92
2018-11-04T01:52:43.502Z,101779.02
2018-11-04T01:55:13.287Z,101777.84
2018-11-04T01:57:42.719Z,101775.72
2018-11-04T02:00:15.275Z,101764.09
2018-11-04T02:02:45.570Z,101767.23
2018-11-04T02:05:15.579Z,101761.75
2018-11-04T02:07:44.981Z,101760.14
2018-11-04T02:10:15.303Z,101761.63
2018-11-04T02:12:44.672Z,101752.73
2018-11-04T02:15:14.159Z,101751.97
2018-11-04T02:17:43.619Z,101752.92
2018-11-04T02:20:13.724Z,101737.41
2018-11-04T02:22:43.462Z,101731.45
2018-11-04T02:25:13.993Z,101731.57
2018-11-04T02:27:43.950Z,101729.03
2018-11-04T02:30:15.521Z,101720.82
2018-11-04T02:32:45.816Z,101718.76
2018-11-04T02:35:15.837Z,101711.43
2018-11-04T02:37:45.237Z,101708.83
2018-11-04T02:40:14.656Z,101715.36
2018-11-04T02:42:44.064Z,101715.01
2018-11-04T02:45:13.458Z,101710.69
2018-11-04T02:47:42.888Z,101712.05
2018-11-04T02:50:12.320Z,101709.93
2018-11-04T02:52:41.728Z,101706.86
2018-11-04T02:55:11.199Z,101701.66
2018-11-04T02:57:40.580Z,101704.79
2018-11-04T03:00:13.078Z,101712.18
2018-11-04T03:02:43.125Z,101704.85
2018-11-04T03:05:12.657Z,101703.14
2018-11-04T03:07:42.808Z,101691.08
2018-11-04T03:10:13.688Z,101693.39
2018-11-04T03:12:43.122Z,101693.92
2018-11-04T03:15:12.600Z,101683.16
2018-11-04T03:17:42.056Z,101681.98
2018-11-04T03:20:11.491Z,101677.61
2018-11-04T03:22:40.921Z,101674.66
2018-11-04T03:25:10.354Z,101672.99
2018-11-04T03:27:39.924Z,101670.92
2018-11-04T03:30:10.150Z,101663.59
2018-11-04T03:32:39.655Z,101667.11
2018-11-04T03:35:09.116Z,101664.56
2018-11-04T03:37:38.523Z,101655.52
2018-11-04T03:40:10.201Z,101657.23
2018-11-04T03:42:39.589Z,101663.32
2018-11-04T03:45:09.661Z,101658.06
2018-11-04T03:47:39.400Z,101657.17
2018-11-04T03:50:10.736Z,101647.17
2018-11-04T03:52:40.221Z,101652.38
2018-11-04T03:55:09.704Z,101651.02
2018-11-04T03:57:39.154Z,101647.17
2018-11-04T04:00:12.536Z,101645.05
2018-11-04T04:02:43.136Z,101636.36
2018-11-04T04:05:12.581Z,101635.58
2018-11-04T04:07:41.993Z,101629.97
2018-11-04T04:10:11.419Z,101633.45
2018-11-04T04:12:40.821Z,101632.56
2018-11-04T04:15:11.376Z,101620.86
2018-11-04T04:17:41.024Z,101619.97
2018-11-04T04:20:10.409Z,101614.77
2018-11-04T04:22:39.871Z,101609.62
2018-11-04T04:25:09.398Z,101608.91
2018-11-04T04:27:38.861Z,101600.73
2018-11-04T04:30:10.677Z,101596.48
2018-11-04T04:32:40.060Z,101599.98
2018-11-04T04:35:10.186Z,101599.57
2018-11-04T04:37:40.097Z,101601.29
2018-11-04T04:40:09.753Z,101598.38
2018-11-04T04:42:39.169Z,101592.77
2018-11-04T04:45:08.598Z,101591.94
2018-11-04T04:47:37.972Z,101592.41
2018-11-04T04:50:07.423Z,101590.63
2018-11-04T04:52:36.920Z,101588.08
2018-11-04T04:55:06.500Z,101592.52
2018-11-04T04:57:36.076Z,101588.61
2018-11-04T05:00:06.744Z,101584.70
2018-11-04T05:02:36.219Z,101585.59
2018-11-04T05:05:05.943Z,101576.48
2018-11-04T05:07:35.695Z,101576.53
2018-11-04T05:10:05.668Z,101579.50
2018-11-04T05:12:35.061Z,101575.23
2018-11-04T05:15:04.925Z,101565.70
2018-11-04T05:17:34.306Z,101568.36
2018-11-04T05:20:03.708Z,101563.58
2018-11-04T05:22:33.108Z,101559.20
2018-11-04T05:25:02.521Z,101565.70
2018-11-04T05:27:31.919Z,101558.37
2018-11-04T05:30:01.554Z,101557.48
2018-11-04T05:32:30.976Z,101558.73
2018-11-04T05:35:00.360Z,101553.11
2018-11-04T05:37:29.964Z,101557.06
2018-11-04T05:39:59.429Z,101557.50
2018-11-04T05:42:28.869Z,101557.55
2018-11-04T05:44:58.264Z,101554.12
2018-11-04T05:47:27.641Z,101566.78
2018-11-04T05:49:57.028Z,101561.20
2018-11-04T05:52:26.452Z,101554.34
2018-11-04T05:54:55.864Z,101567.88
2018-11-04T05:57:25.373Z,101561.84
2018-11-04T05:59:54.820Z,101558.82
2018-11-04T06:02:24.305Z,101561.42
2018-11-04T06:04:53.702Z,101562.78
2018-11-04T06:07:23.280Z,101567.54
2018-11-04T06:09:52.680Z,101571.44
2018-11-04T06:12:22.164Z,101578.42
2018-11-04T06:14:51.564Z,101581.13
2018-11-04T06:17:20.968Z,101587.28
2018-11-04T06:19:50.384Z,101583.84
2018-11-04T06:22:19.835Z,101596.09
2018-11-04T06:24:49.456Z,101590.05
2018-11-04T06:27:18.919Z,101587.91
2018-11-04T06:29:48.449Z,101581.45
2018-11-04T06:32:17.903Z,101585.84
2018-11-04T06:34:47.399Z,101581.94
2018-11-04T06:37:16.689Z,101580.23
2018-11-04T06:39:52.837Z,101581.53
2018-11-04T06:42:22.424Z,101581.53
2018-11-04T06:44:51.827Z,101578.92
2018-11-04T06:47:21.296Z,101578.09
2018-11-04T06:49:50.716Z,101575.53
2018-11-04T06:52:20.137Z,101577.41
2018-11-04T06:54:49.552Z,101577.94
2018-11-04T06:57:19.150Z,101574.50
2018-11-04T06:59:48.576Z,101564.12
2018-11-04T07:02:17.972Z,101570.66
2018-11-04T07:04:47.403Z,101564.61
2018-11-04T07:07:16.874Z,101563.42
2018-11-04T07:09:46.253Z,101569.61
2018-11-04T07:12:15.673Z,101562.73
2018-11-04T07:14:45.133Z,101572.37
2018-11-04T07:17:14.565Z,101570.30
2018-11-04T07:19:44.032Z,101563.89
2018-11-04T07:22:13.432Z,101567.95
2018-11-04T07:24:42.830Z,101561.07
2018-11-04T07:27:12.263Z,101561.17
2018-11-04T07:29:41.696Z,101564.21
2018-11-04T07:32:11.327Z,101557.80
2018-11-04T07:34:40.816Z,101557.48
2018-11-04T07:37:10.209Z,101561.12
2018-11-04T07:39:39.613Z,101560.86
2018-11-04T07:42:09.032Z,101558.03
2018-11-04T07:44:38.426Z,101561.15
2018-11-04T07:47:07.833Z,101558.59
2018-11-04T07:49:37.439Z,101560.75
2018-11-04T07:52:06.912Z,101555.58
2018-11-04T07:54:36.394Z,101559.12
2018-11-04T07:57:06.035Z,101555.20
2018-11-04T07:59:35.350Z,101550.50
2018-11-04T08:02:04.783Z,101548.04
2018-11-04T08:04:34.257Z,101543.33
2018-11-04T08:07:03.658Z,101544.23
2018-11-04T08:09:33.061Z,101541.25
2018-11-04T08:12:02.469Z,101535.24
2018-11-04T08:14:31.950Z,101526.67
2018-11-04T08:17:01.424Z,101523.22
2018-11-04T08:19:30.852Z,101526.77
2018-11-04T08:22:00.289Z,101523.79
2018-11-04T08:24:29.706Z,101519.08
2018-11-04T08:26:59.399Z,101513.95
2018-11-04T08:29:28.825Z,101518.45
2018-11-04T08:31:58.208Z,101517.23
2018-11-04T08:34:27.697Z,101523.35
2018-11-04T08:36:57.118Z,101510.44
2018-11-04T08:39:26.559Z,101507.95
2018-11-04T08:41:56.029Z,101499.84
2018-11-04T08:44:26.041Z,101501.74
2018-11-04T08:46:55.761Z,101497.53
2018-11-04T08:49:25.671Z,101492.36
2018-11-04T08:51:56.098Z,101491.05
2018-11-04T08:54:25.984Z,101489.33
2018-11-04T08:56:55.862Z,101485.84
2018-11-04T08:59:25.713Z,101485.92
2018-11-04T09:01:56.016Z,101488.19
2018-11-04T09:04:25.537Z,101485.23
2018-11-04T09:06:54.963Z,101474.45
2018-11-04T09:09:24.412Z,101475.50
2018-11-04T09:11:53.822Z,101480.39
2018-11-04T09:14:23.241Z,101481.27
2018-11-04T09:16:52.658Z,101479.12
2018-11-04T09:19:22.185Z,101472.25
2018-11-04T09:21:51.778Z,101474.52
2018-11-04T09:24:21.056Z,101474.14
2018-11-04T09:26:50.549Z,101471.14
2018-11-04T09:29:19.988Z,101474.17
2018-11-04T09:31:49.401Z,101475.06
2018-11-04T09:34:18.905Z,101470.30
2018-11-04T09:36:48.360Z,101460.73
2018-11-04T09:39:17.917Z,101467.30
2018-11-04T09:41:47.325Z,101468.14
2018-11-04T09:44:16.720Z,101466.84
2018-11-04T09:46:46.172Z,101456.89
2018-11-04T09:49:15.582Z,101456.42
2018-11-04T09:51:45.032Z,101452.12
2018-11-04T09:54:14.791Z,101460.12
2018-11-04T09:56:44.267Z,101444.52
2018-11-04T09:59:13.632Z,101447.20
2018-11-04T10:01:43.057Z,101445.47
2018-11-04T10:04:12.544Z,101439.78
2018-11-04T10:06:41.925Z,101444.13
2018-11-04T10:09:12.896Z,101442.82
2018-11-04T10:11:42.305Z,101436.71
2018-11-04T10:14:12.270Z,101443.70
2018-11-04T10:16:41.711Z,101427.64
2018-11-04T10:19:11.289Z,101438.55
2018-11-04T10:21:40.726Z,101438.55
2018-11-04T10:24:10.145Z,101439.89
2018-11-04T10:26:39.613Z,101432.05
2018-11-04T10:29:09.188Z,101431.25
2018-11-04T10:31:38.666Z,101422.09
2018-11-04T10:34:08.467Z,101417.86
2018-11-04T10:36:37.892Z,101417.44
2018-11-04T10:39:09.775Z,101413.98
2018-11-04T10:41:39.208Z,101401.83
2018-11-04T10:44:08.951Z,101394.52
2018-11-04T10:46:38.594Z,101388.50
2018-11-04T10:49:08.330Z,101385.07
2018-11-04T10:51:38.445Z,101372.92
2018-11-04T10:54:07.889Z,101372.92
2018-11-04T10:56:37.369Z,101376.41
2018-11-04T10:59:07.084Z,101374.69
2018-11-04T11:01:36.527Z,101372.13
2018-11-04T11:04:05.970Z,101370.50
2018-11-04T11:06:35.374Z,101373.15
2018-11-04T11:09:10.256Z,101376.61
2018-11-04T11:11:40.667Z,101374.36
2018-11-04T11:14:10.100Z,101364.32
2018-11-04T11:16:39.499Z,101353.83
2018-11-04T11:19:08.934Z,101360.47
2018-11-04T11:21:38.360Z,101347.84
2018-11-04T11:24:07.924Z,101339.16
2018-11-04T11:26:37.408Z,101337.84
2018-11-04T11:29:06.803Z,101342.65
2018-11-04T11:31:36.408Z,101340.89
2018-11-04T11:34:05.963Z,101334.28
2018-11-04T11:36:35.412Z,101330.73
2018-11-04T11:39:08.520Z,101326.41
2018-11-04T11:41:37.976Z,101320.33
2018-11-04T11:44:07.391Z,101319.52
2018-11-04T11:46:36.816Z,101316.50
2018-11-04T11:49:06.268Z,101306.89
2018-11-04T11:51:35.697Z,101305.19
2018-11-04T11:54:05.311Z,101308.35
2018-11-04T11:56:34.785Z,101300.53
2018-11-04T11:59:04.186Z,101305.34
2018-11-04T12:01:33.620Z,101300.14
2018-11-04T12:04:03.104Z,101304.09
2018-11-04T12:06:32.566Z,101299.34
2018-11-04T12:09:02.350Z,101290.61
2018-11-04T12:11:31.744Z,101291.92
2018-11-04T12:14:01.184Z,101291.04
2018-11-04T12:16:30.645Z,101281.89
2018-11-04T12:19:00.053Z,101276.69
2018-11-04T12:21:29.493Z,101285.93
2018-11-04T12:23:58.927Z,101278.88
2018-11-04T12:26:28.360Z,101274.50
2018-11-04T12:28:58.327Z,101271.42
2018-11-04T12:31:28.297Z,101267.10
2018-11-04T12:33:57.683Z,101256.76
2018-11-04T12:36:27.195Z,101264.30
2018-11-04T12:38:56.676Z,101255.14
2018-11-04T12:41:26.116Z,101239.46
2018-11-04T12:43:55.658Z,101236.47
2018-11-04T12:46:25.122Z,101238.66
2018-11-04T12:48:54.604Z,101236.13
2018-11-04T12:51:24.039Z,101232.66
2018-11-04T12:53:53.574Z,101233.94
2018-11-04T12:56:22.964Z,101225.58
2018-11-04T12:58:52.553Z,101231.27
2018-11-04T13:01:22.079Z,101233.77
2018-11-04T13:03:51.508Z,101225.39
2018-11-04T13:06:20.991Z,101220.02
2018-11-04T13:08:50.605Z,101218.21
2018-11-04T13:11:20.051Z,101221.56
2018-11-04T13:13:50.168Z,101222.81
2018-11-04T13:16:19.781Z,101228.91
2018-11-04T13:18:49.321Z,101228.00
2018-11-04T13:21:19.131Z,101225.30
2018-11-04T13:23:48.590Z,101215.20
2018-11-04T13:26:18.092Z,101206.94
2018-11-04T13:28:47.579Z,101199.52
2018-11-04T13:31:17.161Z,101200.83
2018-11-04T13:33:46.726Z,101204.75
2018-11-04T13:36:16.965Z,101199.94
2018-11-04T13:38:46.968Z,101204.34
2018-11-04T13:41:16.528Z,101201.25
2018-11-04T13:43:45.944Z,101185.96
2018-11-04T13:46:15.609Z,101196.84
2018-11-04T13:48:45.033Z,101195.97
2018-11-04T13:51:14.480Z,101201.67
2018-11-04T13:53:44.044Z,101193.41
2018-11-04T13:56:13.560Z,101190.34
2018-11-04T13:58:43.125Z,101203.81
2018-11-04T14:01:12.772Z,101199.41
2018-11-04T14:03:42.342Z,101199.37
2018-11-04T14:06:11.918Z,101199.77
2018-11-04T14:08:41.591Z,101203.21
2018-11-04T14:11:11.198Z,101199.69
2018-11-04T14:13:40.733Z,101195.73
2018-11-04T14:16:10.540Z,101197.86
2018-11-04T14:18:39.997Z,101197.84
2018-11-04T14:21:09.524Z,101194.34
2018-11-04T14:23:39.051Z,101197.38
2018-11-04T14:26:08.755Z,101193.89
2018-11-04T14:28:38.246Z,101185.98
2018-11-04T14:31:07.753Z,101186.80
2018-11-04T14:33:37.164Z,101175.44
2018-11-04T14:36:06.824Z,101177.60
2018-11-04T14:38:36.306Z,101171.52
2018-11-04T14:41:06.451Z,101180.70
2018-11-04T14:43:35.993Z,101176.78
2018-11-04T14:46:06.005Z,101175.50
2018-11-04T14:48:35.618Z,101170.70
2018-11-04T14:51:05.216Z,101172.04
2018-11-04T14:53:34.892Z,101175.53
2018-11-04T14:56:05.051Z,101172.06
2018-11-04T14:58:34.770Z,101165.99
2018-11-04T15:01:04.469Z,101171.19
2018-11-04T15:03:34.024Z,101168.52
2018-11-04T15:06:04.318Z,101163.69
2018-11-04T15:08:36.004Z,101164.51
2018-11-04T15:11:05.461Z,101164.42
2018-11-04T15:13:34.887Z,101164.78
2018-11-04T15:16:04.480Z,101156.46
2018-11-04T15:18:34.085Z,101155.16
2018-11-04T15:21:03.533Z,101153.39
2018-11-04T15:23:32.972Z,101156.86
2018-11-04T15:26:02.420Z,101158.13
2018-11-04T15:28:31.804Z,101158.52
2018-11-04T15:31:01.309Z,101165.02
2018-11-04T15:33:30.732Z,101165.02
2018-11-04T15:36:00.234Z,101158.92
2018-11-04T15:38:29.705Z,101161.98
2018-11-04T15:40:59.678Z,101158.52
2018-11-04T15:43:29.387Z,101159.86
2018-11-04T15:45:58.924Z,101149.45
2018-11-04T15:48:28.356Z,101147.29
2018-11-04T15:50:57.803Z,101149.94
2018-11-04T15:53:27.255Z,101147.32
2018-11-04T15:55:56.744Z,101145.56
2018-11-04T15:58:26.140Z,101142.06
2018-11-04T16:00:55.696Z,101142.03
2018-11-04T16:03:25.153Z,101139.00
2018-11-04T16:05:54.747Z,101142.91
2018-11-04T16:08:24.119Z,101149.45
2018-11-04T16:10:53.587Z,101145.07
2018-11-04T16:13:22.976Z,101137.63
2018-11-04T16:15:52.475Z,101142.86
2018-11-04T16:18:22.066Z,101131.53
2018-11-04T16:20:51.430Z,101128.94
2018-11-04T16:23:20.881Z,101129.83
2018-11-04T16:25:50.324Z,101128.48
2018-11-04T16:28:19.810Z,101131.98
2018-11-04T16:30:49.251Z,101133.74
2018-11-04T16:33:18.830Z,101133.74
2018-11-04T16:35:48.267Z,101125.02
2018-11-04T16:38:17.787Z,101135.90
2018-11-04T16:40:47.270Z,101135.90
2018-11-04T16:43:16.812Z,101130.25
2018-11-04T16:45:46.917Z,101129.80
2018-11-04T16:48:17.096Z,101128.13
2018-11-04T16:50:46.716Z,101120.31
2018-11-04T16:53:16.343Z,101120.73
2018-11-04T16:55:46.423Z,101115.97
2018-11-04T16:58:16.858Z,101117.73
2018-11-04T17:00:50.501Z,101121.22
2018-11-04T17:03:20.008Z,101126.93
2018-11-04T17:05:50.113Z,101122.59
2018-11-04T17:08:19.457Z,101125.23
2018-11-04T17:10:50.096Z,101120.86
2018-11-04T17:13:19.615Z,101120.86
2018-11-04T17:15:49.039Z,101133.13
2018-11-04T17:18:18.662Z,101127.47
2018-11-04T17:20:47.973Z,101131.82
2018-11-04T17:23:17.461Z,101127.45
2018-11-04T17:25:46.848Z,101126.56
2018-11-04T17:28:16.384Z,101129.18
2018-11-04T17:30:45.812Z,101123.07
2018-11-04T17:33:15.248Z,101124.83
2018-11-04T17:35:45.070Z,101124.83
2018-11-04T17:38:14.414Z,101123.55
2018-11-04T17:40:43.809Z,101127.47
2018-11-04T17:43:13.289Z,101117.45
2018-11-04T17:45:42.704Z,101128.78
2018-11-04T17:48:12.127Z,101121.37
2018-11-04T17:50:41.684Z,101115.75
2018-11-04T17:53:11.104Z,101104.44
2018-11-04T17:55:40.567Z,101107.03
2018-11-04T17:58:10.134Z,101098.31
2018-11-04T18:00:39.549Z,101100.47
2018-11-04T18:03:09.033Z,101098.28
2018-11-04T18:05:38.432Z,101090.05
2018-11-04T18:08:07.888Z,101094.84
2018-11-04T18:10:37.481Z,101097.48
2018-11-04T18:13:07.152Z,101087.46
2018-11-04T18:15:36.684Z,101085.30
2018-11-04T18:18:06.372Z,101080.50
2018-11-04T18:20:36.523Z,101090.53
2018-11-04T18:23:06.072Z,101084.84
2018-11-04T18:25:35.533Z,101084.00
2018-11-04T18:28:05.145Z,101077.47
2018-11-04T18:30:34.619Z,101083.97
2018-11-04T18:33:04.156Z,101079.19
2018-11-04T18:35:33.730Z,101079.19
2018-11-04T18:38:03.373Z,101079.19
2018-11-04T18:40:36.916Z,101079.20
2018-11-04T18:43:07.092Z,101070.91
2018-11-04T18:45:36.636Z,101071.36
2018-11-04T18:48:06.264Z,101060.48
2018-11-04T18:50:35.857Z,101073.09
2018-11-04T18:53:05.256Z,101070.94
2018-11-04T18:55:34.809Z,101069.59
2018-11-04T18:58:04.239Z,101066.53
2018-11-04T19:00:33.675Z,101054.77
2018-11-04T19:03:03.365Z,101053.49
2018-11-04T19:05:32.923Z,101045.66
2018-11-04T19:08:02.584Z,101062.64
2018-11-04T19:10:32.207Z,101063.06
2018-11-04T19:13:01.678Z,101054.80
2018-11-04T19:15:31.088Z,101049.55
2018-11-04T19:18:00.843Z,101053.92
2018-11-04T19:20:30.318Z,101053.49
2018-11-04T19:22:59.888Z,101058.71
2018-11-04T19:25:29.464Z,101054.37
2018-11-04T19:27:59.033Z,101052.19
2018-11-04T19:30:28.607Z,101049.57
2018-11-04T19:32:58.317Z,101057.87
2018-11-04T19:35:28.312Z,101059.57
2018-11-04T19:37:58.137Z,101050.87
2018-11-04T19:40:27.728Z,101046.08
2018-11-04T19:42:57.285Z,101041.28
2018-11-04T19:45:26.748Z,101039.09
2018-11-04T19:47:56.237Z,101021.64
2018-11-04T19:50:27.205Z,101029.90
2018-11-04T19:52:56.895Z,101036.03
2018-11-04T19:55:26.516Z,101036.48
2018-11-04T19:57:56.111Z,101029.98
2018-11-04T20:00:25.497Z,101043.50
2018-11-04T20:02:54.959Z,101041.30
2018-11-04T20:05:24.463Z,101051.36
2018-11-04T20:07:53.825Z,101052.66
2018-11-04T20:10:23.365Z,101052.66
2018-11-04T20:13:57.732Z,101043.52
2018-11-04T20:16:27.175Z,101043.50
2018-11-04T20:19:01.794Z,101046.51
2018-11-04T20:21:31.267Z,101035.61
2018-11-04T20:24:04.810Z,101039.50
2018-11-04T20:26:34.281Z,101041.66
2018-11-04T20:29:03.872Z,101029.02
2018-11-04T20:31:38.837Z,101021.61
2018-11-04T20:34:08.342Z,101038.62
2018-11-04T20:36:37.992Z,101018.56
2018-11-04T20:39:14.551Z,101021.16
2018-11-04T20:41:44.289Z,101038.59
2018-11-04T20:44:13.749Z,101033.42
2018-11-04T20:46:43.458Z,101022.11
2018-11-04T20:49:18.289Z,101011.68
2018-11-04T20:51:48.184Z,101011.70
2018-11-04T20:54:17.404Z,101016.08
2018-11-04T20:56:51.908Z,101009.13
2018-11-04T20:59:21.465Z,101005.66
2018-11-04T21:01:51.340Z,101007.41
2018-11-04T21:04:21.183Z,101000.43
2018-11-04T21:06:50.742Z,101000.91
2018-11-04T21:09:20.225Z,100995.25
2018-11-04T21:11:50.013Z,100994.83
2018-11-04T21:14:19.496Z,100979.58
2018-11-04T21:16:49.047Z,100980.91
2018-11-04T21:19:18.448Z,100975.68
2018-11-04T21:21:48.134Z,100973.97
2018-11-04T21:24:17.676Z,100970.08
2018-11-04T21:26:47.189Z,100978.34
2018-11-04T21:29:16.862Z,100973.97
2018-11-04T21:31:46.240Z,100982.23
2018-11-04T21:34:15.772Z,100976.58
2018-11-04T21:36:45.517Z,100979.22
2018-11-04T21:39:15.525Z,100977.52
2018-11-04T21:41:45.733Z,100980.98
2018-11-04T21:44:15.347Z,100966.58
2018-11-04T21:46:44.774Z,100959.14
2018-11-04T21:49:14.709Z,100968.72
2018-11-04T21:51:44.258Z,100975.25
2018-11-04T21:54:13.784Z,100966.08
2018-11-04T21:56:43.426Z,100956.48
2018-11-04T21:59:12.949Z,100956.48
2018-11-04T22:01:42.679Z,100948.19
2018-11-04T22:04:12.685Z,100938.17
2018-11-04T22:06:42.787Z,100944.67
2018-11-04T22:09:12.220Z,100954.30
2018-11-04T22:11:41.786Z,100956.48
2018-11-04T22:14:11.236Z,100942.54
2018-11-04T22:16:40.713Z,100939.50
2018-11-04T22:19:10.348Z,100939.95
2018-11-04T22:21:39.870Z,100946.03
2018-11-04T22:24:09.285Z,100948.64
2018-11-04T22:26:38.761Z,100937.31
2018-11-04T22:29:08.169Z,100934.70
2018-11-04T22:31:37.704Z,100930.33
2018-11-04T22:34:08.393Z,100942.11
2018-11-04T22:36:37.886Z,100942.54
2018-11-04T22:39:08.946Z,100925.08
2018-11-04T22:41:38.376Z,100931.61
2018-11-04T22:44:07.913Z,100932.02
2018-11-04T22:46:37.495Z,100934.17
2018-11-04T22:49:07.133Z,100947.69
2018-11-04T22:51:36.629Z,100941.61
2018-11-04T22:54:06.546Z,100939.00
2018-11-04T22:56:36.217Z,100925.05
2018-11-04T22:59:06.267Z,100909.80
2018-11-04T23:01:35.774Z,100921.59
2018-11-04T23:04:05.233Z,100929.42
2018-11-04T23:06:34.586Z,100935.95
2018-11-04T23:09:04.705Z,100931.16
2018-11-04T23:11:34.176Z,100923.32
2018-11-04T23:14:03.631Z,100918.97
2018-11-04T23:16:33.112Z,100920.71
2018-11-04T23:19:02.847Z,100927.24
2018-11-04T23:21:32.359Z,100912.87
2018-11-04T23:24:01.804Z,100908.95
2018-11-04T23:26:31.306Z,100910.28
2018-11-04T23:29:00.768Z,100912.89
2018-11-04T23:31:30.176Z,100916.84
2018-11-04T23:33:59.728Z,100906.83
2018-11-04T23:36:29.169Z,100899.42
2018-11-04T23:38:58.564Z,100909.45
2018-11-04T23:41:28.116Z,100899.42
2018-11-04T23:43:57.507Z,100889.84
2018-11-04T23:46:27.293Z,100899.00
2018-11-04T23:48:57.460Z,100893.77
2018-11-04T23:51:27.175Z,100909.90
2018-11-04T23:53:56.929Z,100903.37
2018-11-04T23:56:26.337Z,100912.11
2018-11-04T23:58:56.566Z,100907.33
